الصفحة الرئيسية
METAR-TAF:

METAR-TAF

مطار :

Imperial Municipal Airport

إمبريال, نبراسكا, الولايات المتحدة

دائرة عرض: 40-31N, خط طول: 101-37W, ارتفاع: 997 متر

مراقبة الطقس الحالي

تاريخ ووقت الإصدار 43 دقيقة قبل الساعة 01:53UTC
ريح 7 عقدة من الشرق
درجة الحرارة 26°درجة مئوية
الرطوبة 39%
ضغط 1012 hPa
الرؤية: 16.1 كم
سماء صافية

METAR: KIML 260153Z AUTO 08007KT 10SM CLR 26/11 A2988 RMK AO2 SLP085 T02610106

زمن: 20:36 (02:36 UTC)


TAF: مفقودة

أرصاد الطقس والتوقعات من أكثر من 4000 مطار (تقارير الطقس للمطار METAR والتنبؤ بالطقس بالمطارTAF).

المحطات المتاحة هي النقط الصفراء والحمراء على الخريطة.

حرك المؤشر فوق النقطة لمعرفة اسم المحطة.

ثم انقر لمعرفة أرصاد وتوقعات الطقس.

لتغيير الخارطة: اضغط على الأزرار الخضراء مع رمز الصليب الأسود للتكبير. على الزر الأخضر مع شرطة للتصغير، أو على الأسهم الخضراء للخرائط المجاورة.


METAR-TAF: